Time;durP1;ratioP1;P1;durP2;ratioP2;P2;SDS_P1;SDS_P2;PMS_P1;PMS_P2;Temp;Humidity;BMP_temperature;BMP_pressure;BME280_temperature;BME280_humidity;BME280_pressure;Samples;Min_cycle;Max_cycle;Signal;HPM_P1;HPM_P2
2022/08/19 00:01:51;;;;;;;;;5.75;5.75;;;;;20.09;71.57;101362.09;4910596;29;8896;-66
2022/08/19 00:04:22;;;;;;;;;5.75;4.50;;;;;20.10;71.54;101369.25;4914223;29;8987;-66
2022/08/19 00:06:49;;;;;;;;;6.25;6.25;;;;;20.10;71.59;101361.06;4915225;29;8849;-66
2022/08/19 00:09:17;;;;;;;;;8.50;8.00;;;;;20.10;71.71;101352.84;4909771;29;8955;-66
2022/08/19 00:11:44;;;;;;;;;10.25;8.00;;;;;20.09;71.74;101360.19;4914684;29;8848;-66
2022/08/19 00:14:12;;;;;;;;;9.75;8.50;;;;;20.09;72.03;101359.38;4897344;29;8823;-66
2022/08/19 00:16:41;;;;;;;;;9.75;7.25;;;;;20.08;71.85;101361.28;4911666;29;8856;-66
2022/08/19 00:19:08;;;;;;;;;10.00;8.75;;;;;20.06;71.80;101355.25;4897835;29;8954;-66
2022/08/19 00:21:39;;;;;;;;;8.00;7.25;;;;;20.04;71.92;101353.81;4911275;29;8829;-66
2022/08/19 00:24:10;;;;;;;;;8.75;7.75;;;;;20.03;71.73;101352.16;4914339;29;9502;-66
2022/08/19 00:26:38;;;;;;;;;6.25;3.75;;;;;19.99;71.67;101352.66;4907712;29;8957;-66
2022/08/19 00:29:11;;;;;;;;;7.50;3.75;;;;;20.00;71.81;101345.28;4914578;29;8836;-66
2022/08/19 00:31:38;;;;;;;;;7.25;7.25;;;;;19.98;71.73;101340.06;4908689;29;8851;-66
2022/08/19 00:34:05;;;;;;;;;7.00;7.00;;;;;19.97;71.82;101340.28;4910438;29;9092;-66
2022/08/19 00:36:32;;;;;;;;;11.50;9.75;;;;;19.95;71.59;101337.81;4914088;29;8848;-66
2022/08/19 00:38:59;;;;;;;;;7.00;7.00;;;;;19.96;71.89;101342.19;4914460;29;8844;-66
2022/08/19 00:41:26;;;;;;;;;5.50;5.50;;;;;19.97;71.77;101352.09;4910510;29;8839;-66
2022/08/19 00:44:06;;;;;;;;;7.75;7.75;;;;;19.97;71.74;101341.16;4909676;29;8844;-66
2022/08/19 00:46:36;;;;;;;;;7.00;7.00;;;;;19.97;71.67;101340.28;4895262;29;8914;-66
2022/08/19 00:49:09;;;;;;;;;8.75;8.00;;;;;19.96;71.76;101344.09;4913437;29;8865;-67
2022/08/19 00:51:36;;;;;;;;;7.00;7.00;;;;;19.95;71.79;101342.47;4914517;29;8824;-66
2022/08/19 00:54:03;;;;;;;;;8.00;7.75;;;;;19.92;71.79;101343.75;4914024;29;9682;-66
2022/08/19 00:56:30;;;;;;;;;5.00;5.00;;;;;19.92;71.84;101353.88;4914102;29;8852;-68
2022/08/19 00:58:58;;;;;;;;;6.00;6.00;;;;;19.92;71.92;101351.13;4914144;29;9006;-68
2022/08/19 01:01:25;;;;;;;;;7.00;6.25;;;;;19.88;71.74;101347.22;4905048;29;8848;-68
2022/08/19 01:03:52;;;;;;;;;6.75;6.75;;;;;19.88;71.85;101349.97;4907674;29;8858;-68
2022/08/19 01:06:24;;;;;;;;;7.75;7.75;;;;;19.84;71.79;101352.34;4895550;29;8854;-68
2022/08/19 01:08:51;;;;;;;;;7.00;7.00;;;;;19.83;71.90;101358.91;4908596;29;9628;-67
2022/08/19 01:11:17;;;;;;;;;9.75;8.00;;;;;19.83;71.85;101363.53;4903254;29;9561;-68
2022/08/19 01:13:45;;;;;;;;;7.25;7.00;;;;;19.83;71.79;101366.25;4906145;29;8968;-68
2022/08/19 01:16:18;;;;;;;;;8.50;7.75;;;;;19.81;71.83;101357.47;4904648;29;8887;-68
2022/08/19 01:18:45;;;;;;;;;9.75;8.25;;;;;19.80;71.99;101356.63;4905630;29;8923;-67
2022/08/19 01:21:26;;;;;;;;;11.25;11.00;;;;;19.80;71.87;101358.56;4903716;29;9593;-67
2022/08/19 01:23:53;;;;;;;;;12.50;12.00;;;;;19.76;72.05;101353.56;4907811;29;8956;-67
2022/08/19 01:26:23;;;;;;;;;12.50;11.25;;;;;19.76;72.04;101358.19;4898794;29;9506;-67
2022/08/19 01:28:54;;;;;;;;;13.25;13.00;;;;;19.74;72.18;101365.81;4913027;29;8871;-67
2022/08/19 01:31:30;;;;;;;;;12.25;11.50;;;;;19.71;72.29;101372.59;4903832;29;8847;-67
2022/08/19 01:33:59;;;;;;;;;13.50;12.75;;;;;19.69;72.09;101369.28;4912232;29;8895;-68
2022/08/19 01:36:33;;;;;;;;;14.50;12.75;;;;;19.67;72.20;101344.09;4903549;29;8989;-67
2022/08/19 01:39:03;;;;;;;;;13.25;11.00;;;;;19.68;72.26;101355.84;4896995;29;8871;-67
2022/08/19 01:41:30;;;;;;;;;14.50;13.50;;;;;19.67;72.33;101360.50;4913015;29;8847;-67
2022/08/19 01:43:57;;;;;;;;;12.00;11.00;;;;;19.68;72.31;101362.13;4910625;29;8863;-67
2022/08/19 01:46:43;;;;;;;;;13.25;12.75;;;;;19.68;72.27;101364.03;4906366;29;8977;-67
2022/08/19 01:49:10;;;;;;;;;19.00;16.50;;;;;19.67;72.21;101365.13;4899981;29;8850;-67
2022/08/19 01:51:37;;;;;;;;;15.00;14.00;;;;;19.65;72.32;101368.13;4903146;29;8851;-66
2022/08/19 01:54:07;;;;;;;;;17.75;16.50;;;;;19.62;72.27;101374.06;4912646;29;8836;-66
2022/08/19 01:56:34;;;;;;;;;13.75;13.00;;;;;19.58;72.27;101378.31;4897094;29;8864;-66
2022/08/19 01:59:16;;;;;;;;;17.00;15.00;;;;;19.55;72.35;101376.03;4907003;29;8852;-66
2022/08/19 02:01:43;;;;;;;;;15.50;14.75;;;;;19.51;72.39;101367.50;4908534;29;9663;-66
2022/08/19 02:04:09;;;;;;;;;14.75;12.00;;;;;19.50;72.37;101373.22;4914660;29;9519;-65
2022/08/19 02:06:36;;;;;;;;;15.25;15.00;;;;;19.51;72.35;101372.13;4912412;29;8860;-68
2022/08/19 02:09:05;;;;;;;;;16.00;13.50;;;;;19.50;72.28;101365.03;4914388;29;8847;-66
2022/08/19 02:11:35;;;;;;;;;15.00;13.25;;;;;19.50;72.35;101373.22;4906218;29;8859;-66
2022/08/19 02:14:06;;;;;;;;;14.00;14.00;;;;;19.48;72.50;101373.44;4915347;29;9534;-66
2022/08/19 02:16:33;;;;;;;;;17.25;16.50;;;;;19.46;72.44;101370.13;4905076;29;8954;-66
2022/08/19 02:19:02;;;;;;;;;15.00;15.00;;;;;19.47;72.39;101370.97;4914280;29;8848;-66
2022/08/19 02:21:30;;;;;;;;;19.75;17.00;;;;;19.47;72.92;101362.75;4910384;29;8847;-66
2022/08/19 02:23:56;;;;;;;;;20.00;15.50;;;;;19.47;72.76;101354.56;4914161;29;8874;-66
2022/08/19 02:26:23;;;;;;;;;11.00;10.25;;;;;19.47;72.65;101355.41;4908931;29;8844;-66
2022/08/19 02:28:50;;;;;;;;;16.75;14.25;;;;;19.49;72.66;101358.72;4916046;29;8860;-66
2022/08/19 02:31:20;;;;;;;;;14.25;13.50;;;;;19.49;72.68;101360.63;4912991;29;8983;-65
2022/08/19 02:33:47;;;;;;;;;16.00;13.00;;;;;19.48;72.59;101357.06;4916551;29;8829;-66
2022/08/19 02:36:15;;;;;;;;;12.50;12.25;;;;;19.47;72.51;101355.41;4911389;29;8854;-66
2022/08/19 02:38:46;;;;;;;;;14.00;13.75;;;;;19.45;72.42;101351.28;4915145;29;9582;-66
2022/08/19 02:41:26;;;;;;;;;14.50;13.25;;;;;19.41;72.65;101361.00;4906976;29;8849;-66
2022/08/19 02:43:55;;;;;;;;;13.00;11.00;;;;;19.39;72.43;101355.78;4910047;29;8937;-66
2022/08/19 02:46:43;;;;;;;;;11.75;10.25;;;;;19.36;72.39;101353.50;4908357;29;8866;-67
2022/08/19 02:49:09;;;;;;;;;14.50;14.50;;;;;19.35;72.43;101362.78;4906477;29;8860;-66
2022/08/19 02:51:40;;;;;;;;;12.00;12.00;;;;;19.35;72.43;101360.06;4909705;29;8841;-66
2022/08/19 02:54:08;;;;;;;;;13.25;13.25;;;;;19.35;72.50;101362.78;4906359;29;8828;-66
2022/08/19 02:56:40;;;;;;;;;13.50;12.25;;;;;19.36;72.53;101349.97;4910281;29;8917;-66
2022/08/19 02:59:08;;;;;;;;;11.75;10.00;;;;;19.35;72.63;101345.56;4904982;29;8841;-66
2022/08/19 03:01:37;;;;;;;;;8.75;8.75;;;;;19.36;72.50;101344.50;4914578;29;8890;-66
2022/08/19 03:04:06;;;;;;;;;8.50;8.50;;;;;19.36;72.48;101337.13;4904301;29;8870;-68
2022/08/19 03:06:36;;;;;;;;;13.00;12.00;;;;;19.35;72.43;101334.66;4910002;29;8850;-68
2022/08/19 03:09:03;;;;;;;;;11.25;10.25;;;;;19.33;72.53;101337.63;4907251;29;8825;-68
2022/08/19 03:11:31;;;;;;;;;12.00;10.25;;;;;19.32;72.34;101340.59;4910204;29;8829;-68
2022/08/19 03:13:59;;;;;;;;;12.50;12.00;;;;;19.31;72.55;101333.47;4914313;29;8916;-68
2022/08/19 03:16:28;;;;;;;;;9.75;8.75;;;;;19.31;72.57;101331.56;4904548;29;8918;-68
2022/08/19 03:19:01;;;;;;;;;11.00;10.25;;;;;19.31;72.50;101328.03;4902113;29;9596;-68
2022/08/19 03:21:33;;;;;;;;;12.75;12.00;;;;;19.31;72.50;101328.84;4913557;29;9541;-68
2022/08/19 03:24:03;;;;;;;;;14.00;12.00;;;;;19.30;72.31;101326.38;4904630;29;8840;-68
2022/08/19 03:26:30;;;;;;;;;14.25;12.50;;;;;19.27;72.28;101323.03;4906029;29;9664;-68
2022/08/19 03:28:57;;;;;;;;;15.00;14.25;;;;;19.25;72.56;101322.47;4907866;29;8916;-68
2022/08/19 03:31:26;;;;;;;;;14.25;11.50;;;;;19.23;72.23;101327.31;4902561;29;8839;-66
2022/08/19 03:34:17;;;;;;;;;11.50;10.75;;;;;19.21;72.48;101334.94;4912664;29;8844;-66
2022/08/19 03:36:45;;;;;;;;;13.75;11.75;;;;;19.19;72.50;101319.84;4911046;29;8863;-66
2022/08/19 03:39:11;;;;;;;;;11.25;10.25;;;;;19.18;72.58;101318.19;4898351;29;8885;-66
2022/08/19 03:41:40;;;;;;;;;13.50;13.00;;;;;19.16;72.94;101318.44;4903832;29;8839;-66
2022/08/19 03:44:21;;;;;;;;;12.25;11.75;;;;;19.16;72.56;101314.88;4913343;29;8927;-67
2022/08/19 03:46:54;;;;;;;;;11.75;11.75;;;;;19.15;72.50;101313.22;4915303;29;9679;-67
2022/08/19 03:49:23;;;;;;;;;15.50;13.00;;;;;19.14;72.93;101315.13;4907308;29;8892;-67
2022/08/19 03:51:56;;;;;;;;;16.50;14.00;;;;;19.13;72.58;101321.66;4909801;29;8840;-67
2022/08/19 03:54:24;;;;;;;;;13.00;13.00;;;;;19.12;72.58;101317.28;4900130;29;8847;-67
2022/08/19 03:56:53;;;;;;;;;16.00;14.75;;;;;19.11;72.73;101326.50;4913904;29;8949;-67
2022/08/19 03:59:29;;;;;;;;;14.67;14.33;;;;;19.11;72.73;101317.50;4904749;29;8953;-67
2022/08/19 04:01:59;;;;;;;;;12.00;12.00;;;;;19.11;72.88;101318.31;4902553;29;9899;-67
2022/08/19 04:04:27;;;;;;;;;14.00;12.25;;;;;19.10;72.58;101321.28;4908158;29;8844;-65
2022/08/19 04:06:55;;;;;;;;;14.25;14.00;;;;;19.10;73.03;101324.03;4905158;29;8893;-66
2022/08/19 04:09:23;;;;;;;;;10.50;10.25;;;;;19.09;72.93;101320.47;4908101;29;8832;-65
2022/08/19 04:11:55;;;;;;;;;13.00;10.75;;;;;19.11;72.79;101323.78;4906773;29;8949;-66
2022/08/19 04:14:24;;;;;;;;;15.50;13.25;;;;;19.10;72.87;101316.66;4903999;29;8829;-65
2022/08/19 04:16:52;;;;;;;;;18.75;15.50;;;;;19.09;73.08;101320.47;4909491;29;9013;-65
2022/08/19 04:19:19;;;;;;;;;13.50;13.50;;;;;19.09;72.88;101325.94;4924558;29;8852;-66
2022/08/19 04:21:51;;;;;;;;;15.75;13.50;;;;;19.09;72.87;101325.94;4914463;29;9560;-65
2022/08/19 04:24:19;;;;;;;;;16.25;14.00;;;;;19.09;73.03;101325.94;4904342;29;8965;-65
2022/08/19 04:26:46;;;;;;;;;20.00;17.00;;;;;19.10;73.08;101322.13;4904214;29;8872;-65
2022/08/19 04:29:16;;;;;;;;;22.25;16.75;;;;;19.10;73.22;101324.84;4910207;29;8841;-65
2022/08/19 04:31:44;;;;;;;;;22.00;20.67;;;;;19.11;73.11;101322.94;4904452;29;8844;-66
2022/08/19 04:34:13;;;;;;;;;17.75;17.75;;;;;19.12;73.16;101330.91;4901487;29;9060;-65
2022/08/19 04:36:42;;;;;;;;;16.33;14.67;;;;;19.11;72.93;101320.22;4909207;29;8951;-65
2022/08/19 04:39:11;;;;;;;;;20.33;20.00;;;;;19.11;73.20;101326.50;4910309;29;8942;-65
2022/08/19 04:44:23;;;;;;;;;25.25;22.00;;;;;19.10;73.08;101326.75;4904261;29;8991;-65
2022/08/19 04:46:50;;;;;;;;;20.33;18.67;;;;;19.08;73.23;101321.53;4905811;29;8843;-65
2022/08/19 04:49:21;;;;;;;;;20.67;19.33;;;;;19.08;73.44;101320.69;4911323;29;8923;-65
2022/08/19 04:51:50;;;;;;;;;20.75;18.50;;;;;19.08;73.52;101326.16;4902097;29;8934;-65
2022/08/19 04:54:20;;;;;;;;;20.25;17.25;;;;;19.08;73.51;101329.72;4902970;29;8994;-65
2022/08/19 04:57:06;;;;;;;;;21.33;19.67;;;;;19.08;73.80;101329.72;4912104;29;8911;-64
2022/08/19 04:59:34;;;;;;;;;12.00;12.00;;;;;19.08;73.62;101335.19;4913464;29;9036;-65
2022/08/19 05:02:01;;;;;;;;;19.33;19.33;;;;;19.08;73.76;101337.06;4898566;29;8969;-65
2022/08/19 05:04:30;;;;;;;;;23.00;20.67;;;;;19.05;73.92;101346.56;4910028;29;8938;-65
2022/08/19 05:06:57;;;;;;;;;26.67;25.33;;;;;19.05;73.83;101338.38;4906751;29;9068;-65
2022/08/19 05:09:27;;;;;;;;;25.33;21.33;;;;;19.05;74.04;101348.47;4899174;29;9111;-65
2022/08/19 05:12:15;;;;;;;;;25.67;23.33;;;;;19.04;74.13;101344.91;4912830;29;9105;-65
2022/08/19 05:14:41;;;;;;;;;28.67;23.00;;;;;19.05;74.13;101349.31;4909924;29;8930;-65
2022/08/19 05:17:08;;;;;;;;;22.00;21.67;;;;;19.03;74.11;101354.97;4904919;29;9211;-65
2022/08/19 05:22:38;;;;;;;;;28.00;25.67;;;;;19.06;74.23;101358.31;4906581;29;9256;-65
2022/08/19 05:25:08;;;;;;;;;28.00;25.00;;;;;19.08;74.41;101359.75;4909051;29;9114;-65
2022/08/19 05:27:39;;;;;;;;;20.67;20.67;;;;;19.09;74.19;101364.13;4909500;29;8940;-65
2022/08/19 05:30:07;;;;;;;;;22.00;19.33;;;;;19.10;74.02;101356.75;4910472;29;9047;-66
2022/08/19 05:32:34;;;;;;;;;21.50;20.50;;;;;19.12;74.36;101358.19;4908778;29;8906;-67
2022/08/19 05:35:00;;;;;;;;;23.25;22.25;;;;;19.12;74.39;101347.28;4913537;29;8824;-67
2022/08/19 05:37:27;;;;;;;;;25.33;22.67;;;;;19.15;74.24;101356.88;4904020;29;8872;-67
2022/08/19 05:39:54;;;;;;;;;26.00;21.75;;;;;19.15;74.40;101340.50;4914085;29;9005;-64
2022/08/19 05:42:22;;;;;;;;;22.50;19.75;;;;;19.17;74.53;101344.66;4913280;29;8877;-67
2022/08/19 05:44:50;;;;;;;;;27.33;23.00;;;;;19.20;74.36;101343.34;4912674;29;8855;-66
2022/08/19 05:47:19;;;;;;;;;18.50;18.50;;;;;19.21;74.78;101342.28;4913864;29;8987;-66
2022/08/19 05:49:46;;;;;;;;;20.50;20.50;;;;;19.23;74.25;101343.69;4912288;29;8841;-67
2022/08/19 05:52:15;;;;;;;;;28.00;27.33;;;;;19.23;74.33;101348.31;4916746;29;8928;-67
2022/08/19 05:54:47;;;;;;;;;31.67;27.67;;;;;19.22;74.24;101344.75;4903645;29;9046;-67
2022/08/19 05:57:18;;;;;;;;;27.00;25.33;;;;;19.19;74.59;101350.69;4913607;29;8958;-67
2022/08/19 05:59:50;;;;;;;;;22.25;20.00;;;;;19.20;74.84;101349.66;4912660;29;9096;-67
2022/08/19 06:02:25;;;;;;;;;27.67;25.33;;;;;19.25;74.50;101343.47;4909957;29;8969;-66
2022/08/19 06:04:52;;;;;;;;;27.00;23.33;;;;;19.24;74.43;101342.66;4911266;29;9703;-66
2022/08/19 06:07:19;;;;;;;;;31.67;29.67;;;;;19.24;74.72;101344.50;4910432;29;8946;-67
2022/08/19 06:09:45;;;;;;;;;25.00;23.50;;;;;19.27;74.87;101344.88;4909274;29;9044;-65
2022/08/19 06:12:28;;;;;;;;;31.00;29.67;;;;;19.29;74.81;101341.09;4901964;29;8864;-65
2022/08/19 06:14:55;;;;;;;;;33.33;30.00;;;;;19.31;74.82;101347.13;4916966;29;9146;-65
2022/08/19 06:17:29;;;;;;;;;37.33;33.67;;;;;19.30;74.98;101343.56;4904377;29;9276;-66
2022/08/19 06:19:56;;;;;;;;;27.67;27.67;;;;;19.31;74.99;101344.41;4909940;29;9244;-66
2022/08/19 06:22:23;;;;;;;;;25.00;23.50;;;;;19.32;75.07;101332.41;4907188;29;8937;-65
2022/08/19 06:24:52;;;;;;;;;30.00;26.25;;;;;19.34;74.98;101333.84;4899828;29;8907;-66
2022/08/19 06:27:19;;;;;;;;;47.75;41.00;;;;;19.31;75.16;101344.41;4914961;29;8947;-65
2022/08/19 06:29:46;;;;;;;;;35.67;31.67;;;;;19.29;75.20;101341.09;4908735;29;9637;-66
2022/08/19 06:32:16;;;;;;;;;43.00;36.67;;;;;19.30;75.44;101340.84;4931862;29;9276;-67
2022/08/19 06:34:42;;;;;;;;;42.33;37.33;;;;;19.27;75.43;101341.31;4917701;29;9402;-66
2022/08/19 06:37:09;;;;;;;;;41.00;36.33;;;;;19.26;75.69;101345.13;4901656;29;9432;-66
2022/08/19 06:39:39;;;;;;;;;42.67;38.00;;;;;19.21;76.06;101345.03;4904611;29;9614;-66
2022/08/19 06:42:11;;;;;;;;;33.67;30.67;;;;;19.22;76.44;101344.75;4909415;29;9483;-66
2022/08/19 06:44:40;;;;;;;;;36.67;30.00;;;;;19.32;76.03;101341.41;4907042;29;9029;-67
2022/08/19 06:47:11;;;;;;;;;44.25;37.75;;;;;19.32;75.76;101352.34;4911946;29;9248;-65
2022/08/19 06:49:41;;;;;;;;;39.00;34.00;;;;;19.33;75.76;101348.56;4902596;29;9554;-66
2022/08/19 06:52:08;;;;;;;;;44.00;39.00;;;;;19.35;75.92;101345.56;4905077;29;9103;-66
2022/08/19 06:54:40;;;;;;;;;32.00;28.67;;;;;19.39;75.92;101349.47;4911679;29;9516;-66
2022/08/19 06:57:23;;;;;;;;;29.00;24.67;;;;;19.42;75.72;101347.09;4913768;29;9025;-66
2022/08/19 06:59:50;;;;;;;;;32.33;26.00;;;;;19.46;75.86;101353.75;4904958;29;9044;-66
2022/08/19 07:02:16;;;;;;;;;39.00;30.67;;;;;19.48;75.86;101354.31;4914814;29;9068;-66
2022/08/19 07:04:44;;;;;;;;;33.67;30.67;;;;;19.50;75.75;101352.19;4902414;29;9350;-66
2022/08/19 07:07:14;;;;;;;;;41.00;34.67;;;;;19.53;75.67;101359.09;4913285;29;9269;-66
2022/08/19 07:09:47;;;;;;;;;29.67;27.33;;;;;19.56;75.94;101364.03;4912883;29;9267;-66
2022/08/19 07:12:31;;;;;;;;;35.00;30.33;;;;;19.59;75.83;101360.00;4917063;29;9059;-66
2022/08/19 07:14:57;;;;;;;;;44.67;32.67;;;;;19.63;75.91;101366.69;4916411;29;9001;-65
2022/08/19 07:17:25;;;;;;;;;36.33;33.33;;;;;19.65;75.89;101365.38;4908459;29;9007;-66
2022/08/19 07:19:52;;;;;;;;;46.00;37.67;;;;;19.62;76.06;101360.38;4912901;29;9277;-66
2022/08/19 07:22:22;;;;;;;;;39.00;32.00;;;;;19.66;76.27;101364.31;4915187;29;9304;-66
2022/08/19 07:24:50;;;;;;;;;40.00;36.67;;;;;19.70;76.18;101365.47;4916832;29;9322;-66
2022/08/19 07:27:18;;;;;;;;;35.33;31.67;;;;;19.77;76.27;101359.88;4916219;29;9329;-66
2022/08/19 07:29:52;;;;;;;;;46.67;37.33;;;;;19.81;76.01;101361.06;4914527;29;9026;-68
2022/08/19 07:32:22;;;;;;;;;42.67;31.33;;;;;19.84;75.98;101349.63;4908128;29;9273;-66
2022/08/19 07:34:49;;;;;;;;;46.33;38.67;;;;;19.86;75.96;101352.13;4901895;29;9009;-66
2022/08/19 07:37:16;;;;;;;;;30.33;28.00;;;;;19.90;76.06;101350.56;4905638;29;9346;-66
2022/08/19 07:39:42;;;;;;;;;30.33;28.33;;;;;19.97;75.88;101360.28;4909025;29;9064;-66
2022/08/19 07:42:10;;;;;;;;;36.67;33.00;;;;;20.04;75.80;101367.50;4907457;29;8932;-66
2022/08/19 07:44:40;;;;;;;;;34.67;30.00;;;;;20.06;75.85;101357.97;4907469;29;9922;-65
2022/08/19 07:47:07;;;;;;;;;33.00;31.00;;;;;20.13;75.95;101355.06;4904100;29;9102;-65
2022/08/19 07:49:54;;;;;;;;;30.00;28.75;;;;;20.22;75.69;101364.56;4903321;29;8958;-66
2022/08/19 07:52:20;;;;;;;;;30.00;28.00;;;;;20.28;75.64;101371.75;4907653;29;8889;-66
2022/08/19 07:54:47;;;;;;;;;25.50;23.25;;;;;20.37;75.58;101369.44;4905163;29;8967;-66
2022/08/19 07:57:13;;;;;;;;;43.67;36.33;;;;;20.39;75.33;101362.66;4911991;29;8845;-67
2022/08/19 07:59:39;;;;;;;;;30.00;24.25;;;;;20.41;75.36;101365.16;4905332;29;9205;-66
2022/08/19 08:02:08;;;;;;;;;44.00;36.67;;;;;20.40;75.59;101364.31;4907211;29;8856;-66
2022/08/19 08:10:11;;;;;;;;;32.50;29.00;;;;;20.43;75.50;101382.16;4913020;29;9113;-65
2022/08/19 08:12:47;;;;;;;;;32.50;27.50;;;;;20.50;75.56;101380.13;4913534;29;8840;-66
2022/08/19 08:15:33;;;;;;;;;29.00;25.00;;;;;20.60;75.22;101384.94;4912058;29;8844;-65
2022/08/19 08:18:07;;;;;;;;;28.50;24.75;;;;;20.67;74.96;101377.41;4902292;29;8891;-65
2022/08/19 08:20:34;;;;;;;;;27.00;23.00;;;;;20.70;74.78;101385.09;4906651;29;9572;-66
2022/08/19 08:25:48;;;;;;;;;37.50;33.50;;;;;20.79;74.57;101388.25;4905054;29;8990;-66
2022/08/19 08:28:15;;;;;;;;;31.00;29.50;;;;;20.79;74.71;101388.25;4903665;29;8870;-66
2022/08/19 08:30:45;;;;;;;;;26.00;24.75;;;;;20.84;74.62;101388.34;4901734;29;8924;-66
2022/08/19 08:33:11;;;;;;;;;22.75;21.00;;;;;20.93;74.37;101390.41;4903737;29;8827;-67
2022/08/19 08:35:45;;;;;;;;;29.25;25.50;;;;;20.99;74.17;101396.78;4904436;29;8837;-67
2022/08/19 08:38:12;;;;;;;;;25.75;23.50;;;;;21.04;73.81;101393.31;4902214;29;8853;-66
2022/08/19 08:40:49;;;;;;;;;21.75;20.00;;;;;21.15;73.70;101390.47;4904067;29;8844;-66
2022/08/19 08:43:27;;;;;;;;;16.50;16.00;;;;;21.26;73.40;101382.38;4905005;29;8840;-66
2022/08/19 08:46:16;;;;;;;;;21.25;19.00;;;;;21.32;73.03;101395.94;4905347;29;8970;-66
2022/08/19 08:49:20;;;;;;;;;17.25;14.75;;;;;21.33;72.18;101386.63;4905328;29;8852;-66
2022/08/19 08:51:52;;;;;;;;;25.75;23.50;;;;;21.31;72.33;101387.94;4903874;29;9710;-67
2022/08/19 08:54:32;;;;;;;;;21.75;21.75;;;;;21.34;72.43;101399.25;4907031;29;8864;-66
2022/08/19 08:57:04;;;;;;;;;18.50;15.75;;;;;21.40;72.13;101400.16;4905273;29;8874;-66
2022/08/19 08:59:36;;;;;;;;;15.50;15.50;;;;;21.45;71.94;101397.47;4906097;29;8874;-66
2022/08/19 09:02:02;;;;;;;;;19.50;18.50;;;;;21.46;71.80;101399.13;4905177;29;8927;-66
2022/08/19 09:04:29;;;;;;;;;24.25;23.00;;;;;21.39;71.80;101380.16;4903299;29;9575;-66
2022/08/19 09:07:04;;;;;;;;;20.75;18.00;;;;;21.48;71.70;101392.31;4903081;29;8867;-66
2022/08/19 09:09:48;;;;;;;;;20.00;20.00;;;;;21.52;71.41;101398.13;4909074;29;8844;-66
2022/08/19 09:12:25;;;;;;;;;17.50;16.25;;;;;21.50;71.47;101393.97;4911359;29;8866;-66
2022/08/19 09:15:01;;;;;;;;;22.50;19.75;;;;;21.50;71.30;101394.81;4910360;29;8872;-66
2022/08/19 09:17:38;;;;;;;;;15.75;14.00;;;;;21.55;71.23;101394.03;4908650;29;8867;-66
2022/08/19 09:20:08;;;;;;;;;14.75;13.25;;;;;21.57;71.14;101389.97;4908487;29;8876;-67
2022/08/19 09:22:37;;;;;;;;;10.00;9.75;;;;;21.69;71.22;101393.41;4913433;29;8851;-66
2022/08/19 09:25:05;;;;;;;;;15.00;15.00;;;;;21.85;70.92;101396.34;4909407;29;8848;-67
2022/08/19 09:27:31;;;;;;;;;16.75;16.75;;;;;21.93;70.58;101393.97;4913352;29;8852;-66
2022/08/19 09:30:18;;;;;;;;;14.50;14.00;;;;;22.00;69.89;101404.75;4912146;29;8852;-66
2022/08/19 09:32:46;;;;;;;;;11.50;10.00;;;;;22.08;69.99;101403.44;4913864;29;8855;-66
2022/08/19 09:35:21;;;;;;;;;17.50;13.50;;;;;22.06;69.65;101416.59;4909988;29;8930;-66
2022/08/19 09:37:49;;;;;;;;;14.50;12.00;;;;;22.08;69.00;101407.03;4912636;29;8971;-67
2022/08/19 09:40:20;;;;;;;;;11.25;10.25;;;;;22.16;69.05;101409.34;4908668;29;9206;-65
2022/08/19 09:42:50;;;;;;;;;9.00;8.75;;;;;22.19;68.59;101402.50;4912079;29;8983;-66
2022/08/19 09:45:21;;;;;;;;;10.50;10.50;;;;;22.13;68.47;101409.03;4910142;29;8827;-66
2022/08/19 09:47:50;;;;;;;;;12.00;11.75;;;;;22.08;68.33;101409.78;4912527;29;8841;-66
2022/08/19 09:50:21;;;;;;;;;14.50;13.50;;;;;22.04;68.07;101403.16;4910000;29;9482;-66
2022/08/19 09:52:48;;;;;;;;;9.25;9.25;;;;;22.05;67.94;101406.72;4907750;29;8847;-66
2022/08/19 09:55:24;;;;;;;;;13.75;11.00;;;;;22.08;67.95;101417.16;4912589;29;8871;-66
2022/08/19 09:58:01;;;;;;;;;10.00;10.00;;;;;22.11;67.59;101416.66;4916643;29;8908;-66
2022/08/19 10:00:28;;;;;;;;;15.25;12.00;;;;;22.13;67.34;101415.34;4913561;29;8833;-66
2022/08/19 10:02:55;;;;;;;;;11.75;11.50;;;;;22.18;66.64;101417.31;4917901;29;8927;-66
2022/08/19 10:08:08;;;;;;;;;14.00;12.50;;;;;22.18;66.44;101418.13;4909808;29;8860;-66
2022/08/19 10:10:45;;;;;;;;;12.75;11.50;;;;;22.14;66.58;101413.44;4905945;29;8851;-67
2022/08/19 10:13:14;;;;;;;;;12.50;12.50;;;;;22.08;67.11;101423.50;4917138;29;8849;-66
2022/08/19 10:15:42;;;;;;;;;9.00;9.00;;;;;22.07;67.33;101421.00;4910317;29;8923;-67
2022/08/19 10:18:12;;;;;;;;;9.50;9.00;;;;;22.08;67.67;101418.00;4914926;29;8837;-66
2022/08/19 10:20:39;;;;;;;;;13.00;11.75;;;;;22.05;67.51;101413.03;4908969;29;8841;-66
2022/08/19 10:23:05;;;;;;;;;12.75;12.00;;;;;22.02;67.37;101408.06;4910133;29;8848;-66
2022/08/19 10:25:33;;;;;;;;;14.00;14.00;;;;;22.04;67.55;101410.53;4910061;29;9810;-67
2022/08/19 10:28:00;;;;;;;;;8.75;8.75;;;;;22.05;67.73;101407.53;4906893;29;8851;-66
2022/08/19 10:30:27;;;;;;;;;10.25;10.00;;;;;22.09;67.66;101414.19;4909268;29;8857;-66
2022/08/19 10:32:54;;;;;;;;;7.25;7.00;;;;;22.15;67.49;101410.41;4917353;29;8882;-65
2022/08/19 10:35:21;;;;;;;;;9.00;9.00;;;;;22.16;67.69;101409.34;4917003;29;8899;-66
2022/08/19 10:37:48;;;;;;;;;13.00;11.00;;;;;22.14;67.07;101413.44;4902184;29;8908;-66
2022/08/19 10:40:23;;;;;;;;;11.75;11.75;;;;;22.13;67.02;101412.59;4901754;29;8875;-66
2022/08/19 10:42:49;;;;;;;;;8.25;8.25;;;;;22.24;67.09;101419.03;4916376;29;9889;-66
2022/08/19 10:45:16;;;;;;;;;10.00;9.50;;;;;22.33;66.81;101413.91;4916888;29;9825;-66
2022/08/19 10:47:43;;;;;;;;;10.25;8.50;;;;;22.36;66.33;101410.63;4899075;29;8859;-66
2022/08/19 10:52:55;;;;;;;;;11.50;9.75;;;;;22.48;66.44;101415.97;4907354;29;8854;-66
2022/08/19 10:58:25;;;;;;;;;12.50;11.75;;;;;22.56;66.30;101419.06;4905493;29;8852;-66
2022/08/19 11:00:54;;;;;;;;;12.00;11.00;;;;;22.52;66.25;101419.84;4908386;29;8851;-66
2022/08/19 11:03:22;;;;;;;;;6.75;6.75;;;;;22.49;66.46;101412.97;4900846;29;8847;-66
2022/08/19 11:06:19;;;;;;;;;12.25;9.75;;;;;22.45;66.25;101418.16;4913259;29;8840;-67
2022/08/19 11:08:45;;;;;;;;;9.75;9.25;;;;;22.45;66.50;101412.66;4908276;29;8872;-66
2022/08/19 11:11:12;;;;;;;;;8.75;8.00;;;;;22.46;66.42;101416.22;4914003;29;8856;-66
2022/08/19 11:13:40;;;;;;;;;8.00;8.00;;;;;22.44;66.44;101413.75;4905225;29;8848;-65
2022/08/19 11:16:13;;;;;;;;;9.50;8.25;;;;;22.48;66.59;101416.78;4911355;29;8876;-67
2022/08/19 11:18:43;;;;;;;;;6.50;6.50;;;;;22.53;66.66;101416.03;4902570;29;9001;-65
2022/08/19 11:21:17;;;;;;;;;6.75;6.00;;;;;22.57;66.78;101420.72;4906719;29;8844;-65
2022/08/19 11:23:45;;;;;;;;;7.25;5.75;;;;;22.61;66.34;101416.38;4905115;29;8881;-65
2022/08/19 11:26:13;;;;;;;;;9.25;9.00;;;;;22.70;66.34;101413.97;4915033;29;8848;-65
2022/08/19 11:28:39;;;;;;;;;8.25;8.25;;;;;22.73;66.24;101415.34;4910376;29;8957;-66
2022/08/19 11:31:16;;;;;;;;;5.00;5.00;;;;;22.78;66.08;101412.69;4904175;29;8867;-66
2022/08/19 11:33:43;;;;;;;;;5.25;4.75;;;;;22.83;65.76;101412.72;4908559;29;8859;-66
2022/08/19 11:36:14;;;;;;;;;5.00;5.00;;;;;22.87;65.58;101411.91;4914694;29;9661;-66
2022/08/19 11:38:41;;;;;;;;;8.25;7.50;;;;;22.93;65.50;101413.66;4906257;29;8863;-67
2022/08/19 11:41:08;;;;;;;;;6.50;6.50;;;;;22.91;65.07;101404.84;4908257;29;8877;-65
2022/08/19 11:43:35;;;;;;;;;6.75;6.00;;;;;22.93;65.19;101408.16;4913695;29;8955;-66
2022/08/19 11:46:09;;;;;;;;;6.50;6.50;;;;;22.94;65.21;101409.81;4908737;29;8866;-67
2022/08/19 11:48:36;;;;;;;;;11.00;10.50;;;;;22.86;65.13;101414.94;4915347;29;8848;-67
2022/08/19 11:51:06;;;;;;;;;5.00;4.25;;;;;22.84;64.86;101411.63;4915452;29;9546;-66
2022/08/19 11:53:33;;;;;;;;;4.50;4.50;;;;;22.83;64.87;101401.72;4906632;29;8869;-67
2022/08/19 11:56:00;;;;;;;;;4.25;4.25;;;;;22.87;64.77;101403.69;4905744;29;8967;-67
2022/08/19 11:58:27;;;;;;;;;7.25;7.25;;;;;22.90;64.70;101402.34;4915393;29;8983;-67